Constantine, Kentucky
Current Conditions -  °F | °C
As of 2:58 PM on Tuesday 25 Nov 2014 (Local Time) from KFTK Reporting Station
Clear Clear  
Wind Chill: 38°   Ceiling: Unl
Heat Index: 43°   Visibility: 10mi
Dew Point: 27°   Wind: 8mph
Humidity: 54%   Direction: 280°W
Pressure: 30.11"   Gusts: NA
Location:  37.8151°N, 86.3209°W
Report Text: KFTK 252058Z AUTO 28007KT 10SM CLR 06/M03 A3011 RMK AO2 SLP204 T00621026 55007
Loading
Personal Weather Stations






























Interactive Weather Map New forecast layout! Learn more

10-Day Weather Forecast

Advertisements
Track Severe Weather on mobile